createdAt,value
2019-03-03T00:00:37.181Z,6.17
2019-03-03T00:03:08.463Z,6.67
2019-03-03T00:05:39.733Z,6.37
2019-03-03T00:08:11.099Z,6.03
2019-03-03T00:10:42.698Z,5.70
2019-03-03T00:13:13.854Z,5.20
2019-03-03T00:15:45.466Z,5.83
2019-03-03T00:18:16.649Z,5.75
2019-03-03T00:20:48.165Z,5.40
2019-03-03T00:23:19.387Z,6.33
2019-03-03T00:25:50.570Z,6.47
2019-03-03T00:28:21.722Z,6.30
2019-03-03T00:30:52.809Z,6.03
2019-03-03T00:33:24.374Z,5.92
2019-03-03T00:35:55.763Z,5.60
2019-03-03T00:38:28.521Z,4.80
2019-03-03T00:41:14.594Z,5.47
2019-03-03T00:43:47.337Z,5.67
2019-03-03T00:46:26.105Z,4.35
2019-03-03T00:49:10.618Z,4.70
2019-03-03T00:51:51.277Z,5.72
2019-03-03T00:54:29.761Z,6.72
2019-03-03T00:57:03.605Z,6.10
2019-03-03T00:59:39.243Z,5.80
2019-03-03T01:02:14.774Z,6.20
2019-03-03T01:04:50.563Z,6.15
2019-03-03T01:07:23.333Z,7.72
2019-03-03T01:10:09.922Z,6.55
2019-03-03T01:12:42.720Z,7.03
2019-03-03T01:15:15.553Z,4.85
2019-03-03T01:17:54.534Z,5.05
2019-03-03T01:20:30.383Z,4.13
2019-03-03T01:23:19.683Z,5.00
2019-03-03T01:25:50.974Z,5.28
2019-03-03T01:28:23.296Z,5.75
2019-03-03T01:30:54.351Z,4.37
2019-03-03T01:33:25.704Z,5.62
2019-03-03T01:35:56.818Z,4.15
2019-03-03T01:38:27.966Z,5.30
2019-03-03T01:41:03.895Z,4.80
2019-03-03T01:43:35.540Z,5.42
2019-03-03T01:46:06.561Z,5.15
2019-03-03T01:48:37.879Z,5.30
2019-03-03T01:51:09.028Z,4.58
2019-03-03T01:53:40.265Z,5.65
2019-03-03T01:56:11.651Z,4.62
2019-03-03T01:58:42.918Z,4.35
2019-03-03T02:01:14.198Z,4.08
2019-03-03T02:03:45.343Z,4.78
2019-03-03T02:06:16.518Z,5.20
2019-03-03T02:08:48.274Z,4.53
2019-03-03T02:11:19.436Z,4.80
2019-03-03T02:13:50.666Z,5.12
2019-03-03T02:16:22.143Z,4.92
2019-03-03T02:18:53.364Z,5.20
2019-03-03T02:21:24.578Z,5.03
2019-03-03T02:23:55.881Z,5.15
2019-03-03T02:26:26.989Z,4.30
2019-03-03T02:28:58.307Z,4.70
2019-03-03T02:31:29.442Z,4.05
2019-03-03T02:34:00.595Z,5.17
2019-03-03T02:36:31.774Z,4.20
2019-03-03T02:39:04.689Z,4.10
2019-03-03T02:41:37.402Z,4.33
2019-03-03T02:44:08.627Z,4.00
2019-03-03T02:46:39.762Z,3.30
2019-03-03T02:49:11.048Z,3.47
2019-03-03T02:51:45.815Z,4.22
2019-03-03T02:54:16.944Z,4.10
2019-03-03T02:56:48.100Z,3.65
2019-03-03T02:59:19.290Z,4.03
2019-03-03T03:01:52.063Z,4.42
2019-03-03T03:04:23.520Z,3.90
2019-03-03T03:07:02.092Z,4.60
2019-03-03T03:09:35.072Z,4.47
2019-03-03T03:12:10.775Z,4.47
2019-03-03T03:14:49.751Z,5.42
2019-03-03T03:17:25.493Z,5.25
2019-03-03T03:19:58.246Z,5.42
2019-03-03T03:22:35.189Z,6.03
2019-03-03T03:25:17.750Z,5.22
2019-03-03T03:27:52.922Z,4.10
2019-03-03T03:30:25.766Z,4.70
2019-03-03T03:32:58.421Z,5.12
2019-03-03T03:35:33.967Z,4.25
2019-03-03T03:38:12.766Z,5.50
2019-03-03T03:40:45.625Z,5.70
2019-03-03T03:43:27.660Z,6.05
2019-03-03T03:46:09.730Z,6.65
2019-03-03T03:48:42.361Z,6.83
2019-03-03T03:51:24.473Z,6.22
2019-03-03T03:54:16.668Z,5.95
2019-03-03T03:56:55.145Z,6.97
2019-03-03T03:59:27.842Z,7.50
2019-03-03T04:02:03.719Z,8.05
2019-03-03T04:04:39.213Z,8.80
2019-03-03T04:07:12.015Z,7.90
2019-03-03T04:09:44.869Z,8.28
2019-03-03T04:12:37.920Z,8.95
2019-03-03T04:15:12.295Z,7.70
2019-03-03T04:17:47.963Z,12.68
2019-03-03T04:20:40.669Z,12.82
2019-03-03T04:23:16.190Z,12.45
2019-03-03T04:25:58.216Z,11.48
2019-03-03T04:28:33.933Z,13.88
2019-03-03T04:31:15.829Z,14.25
2019-03-03T04:34:01.068Z,10.18
2019-03-03T04:36:33.835Z,10.00
2019-03-03T04:39:07.943Z,10.20
2019-03-03T04:41:40.784Z,10.68
2019-03-03T04:44:13.554Z,9.73
2019-03-03T04:46:49.158Z,10.18
2019-03-03T04:49:38.325Z,10.40
2019-03-03T04:52:11.037Z,10.50
2019-03-03T04:54:53.017Z,10.08
2019-03-03T04:57:34.794Z,10.93
2019-03-03T05:00:29.189Z,10.50
2019-03-03T05:03:04.878Z,11.05
2019-03-03T05:05:53.593Z,11.50
2019-03-03T05:08:26.268Z,10.85
2019-03-03T05:11:04.832Z,10.85
2019-03-03T05:13:40.455Z,11.08
2019-03-03T05:16:29.505Z,9.98
2019-03-03T05:19:02.199Z,10.18
2019-03-03T05:21:34.484Z,10.32
2019-03-03T05:24:05.595Z,9.63
2019-03-03T05:26:36.809Z,10.60
2019-03-03T05:29:07.898Z,9.65
2019-03-03T05:31:39.137Z,10.25
2019-03-03T05:34:12.187Z,10.70
2019-03-03T05:36:43.508Z,9.98
2019-03-03T05:39:14.584Z,10.23
2019-03-03T05:41:45.835Z,9.40
2019-03-03T05:44:16.980Z,10.25
2019-03-03T05:46:48.563Z,10.03
2019-03-03T05:49:21.004Z,9.15
2019-03-03T05:51:52.254Z,10.03
2019-03-03T05:54:24.397Z,11.60
2019-03-03T05:56:55.673Z,12.70
2019-03-03T05:59:28.140Z,13.43
2019-03-03T06:01:59.337Z,19.40
2019-03-03T06:04:30.488Z,20.88
2019-03-03T06:07:01.562Z,14.65
2019-03-03T06:09:32.866Z,11.88
2019-03-03T06:12:03.893Z,12.13
2019-03-03T06:14:35.001Z,13.70
2019-03-03T06:17:11.571Z,14.70
2019-03-03T06:19:42.860Z,14.78
2019-03-03T06:22:14.004Z,14.28
2019-03-03T06:24:45.240Z,15.03
2019-03-03T06:27:16.814Z,17.62
2019-03-03T06:29:48.118Z,16.45
2019-03-03T06:32:19.288Z,15.90
2019-03-03T06:34:50.775Z,20.02
2019-03-03T06:37:22.153Z,17.73
2019-03-03T06:39:53.389Z,16.60
2019-03-03T06:42:24.630Z,16.48
2019-03-03T06:44:55.686Z,17.42
2019-03-03T06:47:26.964Z,18.85
2019-03-03T06:49:58.051Z,18.60
2019-03-03T06:52:29.167Z,18.67
2019-03-03T06:55:00.245Z,18.15
2019-03-03T06:57:31.610Z,17.45
2019-03-03T07:00:02.961Z,16.05
2019-03-03T07:02:35.199Z,13.83
2019-03-03T07:05:08.207Z,13.28
2019-03-03T07:07:39.512Z,14.03
2019-03-03T07:10:13.243Z,12.75
2019-03-03T07:12:44.350Z,12.45
2019-03-03T07:15:16.852Z,9.38
2019-03-03T07:17:47.980Z,10.30
2019-03-03T07:20:19.092Z,10.05
2019-03-03T07:22:50.456Z,10.65
2019-03-03T07:25:22.686Z,10.25
2019-03-03T07:27:54.295Z,10.08
2019-03-03T07:30:25.486Z,9.03
2019-03-03T07:33:04.343Z,11.75
2019-03-03T07:35:35.790Z,10.87
2019-03-03T07:38:07.286Z,11.20
2019-03-03T07:40:38.409Z,10.43
2019-03-03T07:43:09.607Z,10.13
2019-03-03T07:45:42.854Z,9.78
2019-03-03T07:48:14.111Z,10.63
2019-03-03T07:50:45.248Z,10.45
2019-03-03T07:53:16.310Z,10.80
2019-03-03T07:55:47.571Z,10.32
2019-03-03T07:58:19.874Z,9.73
2019-03-03T08:00:51.889Z,7.72
2019-03-03T08:03:23.250Z,5.58
2019-03-03T08:05:54.257Z,5.55
2019-03-03T08:08:25.636Z,5.12
2019-03-03T08:10:56.953Z,5.37
2019-03-03T08:13:28.212Z,5.28
2019-03-03T08:16:01.479Z,5.80
2019-03-03T08:18:32.818Z,4.35
2019-03-03T08:21:03.991Z,4.03
2019-03-03T08:23:35.209Z,5.00
2019-03-03T08:26:06.379Z,6.00
2019-03-03T08:28:37.551Z,7.05
2019-03-03T08:31:08.810Z,6.53
2019-03-03T08:33:40.098Z,7.67
2019-03-03T08:36:11.156Z,7.22
2019-03-03T08:38:42.511Z,9.75
2019-03-03T08:41:14.282Z,8.18
2019-03-03T08:43:47.101Z,10.23
2019-03-03T08:46:34.721Z,14.55
2019-03-03T08:49:10.184Z,14.38
2019-03-03T08:51:54.745Z,14.70
2019-03-03T08:54:27.552Z,15.72
2019-03-03T08:57:00.343Z,16.27
2019-03-03T08:59:36.500Z,14.95
2019-03-03T09:02:12.325Z,15.40
2019-03-03T09:04:54.522Z,9.13
2019-03-03T09:07:27.259Z,9.15
2019-03-03T09:10:00.040Z,9.00
2019-03-03T09:12:34.109Z,11.85
2019-03-03T09:15:18.773Z,9.73
2019-03-03T09:18:01.022Z,6.78
2019-03-03T09:20:50.088Z,5.80
2019-03-03T09:23:40.687Z,43.52
2019-03-03T09:26:25.812Z,10.85
2019-03-03T09:29:07.538Z,9.40
2019-03-03T09:31:58.431Z,7.83
2019-03-03T09:34:31.592Z,6.15
2019-03-03T09:37:07.598Z,5.10
2019-03-03T09:39:50.122Z,4.30
2019-03-03T09:42:25.360Z,3.90
2019-03-03T09:45:07.120Z,3.40
2019-03-03T09:47:39.831Z,3.95
2019-03-03T09:50:15.896Z,3.92
2019-03-03T09:52:54.360Z,4.20
2019-03-03T09:55:27.310Z,3.53
2019-03-03T09:57:59.973Z,3.92
2019-03-03T10:00:35.476Z,3.92
2019-03-03T10:03:20.940Z,4.15
2019-03-03T10:06:07.587Z,4.42
2019-03-03T10:08:57.713Z,4.67
2019-03-03T10:11:35.916Z,5.00
2019-03-03T10:14:17.391Z,5.08
2019-03-03T10:17:04.490Z,7.12
2019-03-03T10:19:37.351Z,7.05
2019-03-03T10:22:13.132Z,6.28
2019-03-03T10:24:54.968Z,5.95
2019-03-03T10:27:33.881Z,8.33
2019-03-03T10:30:12.878Z,7.50
2019-03-03T10:32:48.850Z,4.97
2019-03-03T10:35:23.957Z,4.47
2019-03-03T10:38:05.768Z,5.30
2019-03-03T10:40:38.592Z,5.03
2019-03-03T10:43:12.536Z,4.62
2019-03-03T10:45:51.289Z,4.80
2019-03-03T10:48:31.957Z,4.97
2019-03-03T10:51:04.798Z,5.33
2019-03-03T10:53:40.516Z,6.00
2019-03-03T10:56:21.973Z,8.38
2019-03-03T10:59:03.358Z,8.53
2019-03-03T11:01:38.761Z,9.98
2019-03-03T11:04:26.630Z,10.68
2019-03-03T11:07:08.163Z,19.75
2019-03-03T11:09:53.108Z,7.75
2019-03-03T11:12:42.724Z,9.50
2019-03-03T11:15:28.373Z,8.98
2019-03-03T11:18:06.849Z,8.95
2019-03-03T11:20:42.630Z,9.70
2019-03-03T11:23:18.362Z,9.10
2019-03-03T11:26:01.048Z,9.00
2019-03-03T11:28:37.296Z,11.05
2019-03-03T11:31:10.155Z,12.25
2019-03-03T11:33:52.221Z,9.63
2019-03-03T11:36:31.621Z,9.88
2019-03-03T11:39:16.431Z,8.95
2019-03-03T11:42:01.522Z,7.05
2019-03-03T11:44:44.692Z,6.12
2019-03-03T11:47:23.748Z,7.15
2019-03-03T11:50:05.696Z,7.30
2019-03-03T11:52:52.204Z,6.90
2019-03-03T11:55:25.190Z,7.83
2019-03-03T11:58:01.076Z,8.25
2019-03-03T12:00:37.002Z,8.05
2019-03-03T12:03:15.749Z,8.20
2019-03-03T12:05:51.126Z,8.83
2019-03-03T12:08:29.505Z,8.33
2019-03-03T12:11:11.076Z,10.35
2019-03-03T12:13:43.882Z,8.68
2019-03-03T12:16:19.784Z,11.55
2019-03-03T12:18:55.754Z,14.45
2019-03-03T12:21:35.825Z,15.50
2019-03-03T12:24:09.103Z,13.70
2019-03-03T12:26:47.889Z,14.25
2019-03-03T12:29:38.263Z,12.78
2019-03-03T12:32:23.885Z,13.85
2019-03-03T12:35:12.458Z,48.58
2019-03-03T12:38:12.701Z,115.82
2019-03-03T12:40:48.449Z,7.35
2019-03-03T12:43:27.785Z,8.30
2019-03-03T12:46:02.280Z,8.45
2019-03-03T12:48:43.977Z,8.43
2019-03-03T12:51:16.666Z,7.28
2019-03-03T12:53:55.673Z,6.95
2019-03-03T12:56:37.734Z,8.50
2019-03-03T12:59:26.850Z,7.20
2019-03-03T13:01:59.691Z,6.65
2019-03-03T13:04:42.152Z,39.70
2019-03-03T13:07:15.926Z,7.17
2019-03-03T13:09:55.708Z,6.92
2019-03-03T13:12:31.588Z,7.50
2019-03-03T13:15:10.246Z,7.03
2019-03-03T13:17:48.154Z,7.12
2019-03-03T13:20:33.699Z,7.60
2019-03-03T13:23:12.686Z,7.05
2019-03-03T13:25:55.751Z,6.45
2019-03-03T13:28:40.537Z,6.62
2019-03-03T13:31:16.179Z,6.10
2019-03-03T13:33:52.284Z,6.62
2019-03-03T13:36:29.471Z,7.10
2019-03-03T13:39:17.552Z,6.60
2019-03-03T13:41:59.358Z,7.08
2019-03-03T13:44:31.220Z,6.83
2019-03-03T13:47:02.340Z,6.17
2019-03-03T13:49:33.573Z,6.53
2019-03-03T13:52:05.163Z,8.68
2019-03-03T13:54:36.337Z,8.05
2019-03-03T13:57:07.568Z,7.90
2019-03-03T13:59:38.569Z,7.90
2019-03-03T14:02:09.912Z,7.47
2019-03-03T14:04:40.984Z,7.10
2019-03-03T14:07:12.276Z,7.10
2019-03-03T14:09:44.443Z,6.65
2019-03-03T14:12:15.545Z,7.22
2019-03-03T14:14:46.774Z,8.10
2019-03-03T14:17:18.154Z,7.75
2019-03-03T14:19:50.097Z,7.35
2019-03-03T14:22:21.364Z,6.08
2019-03-03T14:24:52.675Z,5.80
2019-03-03T14:27:25.896Z,6.03
2019-03-03T14:29:58.183Z,6.12
2019-03-03T14:32:29.396Z,5.80
2019-03-03T14:35:02.436Z,6.00
2019-03-03T14:37:34.055Z,5.70
2019-03-03T14:40:14.745Z,6.50
2019-03-03T14:42:46.077Z,6.75
2019-03-03T14:45:18.717Z,6.58
2019-03-03T14:47:51.872Z,7.35
2019-03-03T14:50:23.545Z,7.80
2019-03-03T14:52:56.846Z,7.58
2019-03-03T14:55:28.612Z,7.90
2019-03-03T14:58:00.525Z,8.20
2019-03-03T15:00:34.243Z,7.58
2019-03-03T15:03:08.933Z,6.97
2019-03-03T15:05:41.583Z,7.83
2019-03-03T15:08:13.409Z,7.30
2019-03-03T15:10:45.388Z,7.33
2019-03-03T15:13:16.984Z,7.15
2019-03-03T15:15:48.425Z,7.40
2019-03-03T15:18:19.635Z,8.00
2019-03-03T15:20:50.765Z,8.10
2019-03-03T15:23:21.911Z,8.90
2019-03-03T15:25:53.179Z,8.93
2019-03-03T15:28:24.284Z,9.08
2019-03-03T15:30:55.427Z,9.85
2019-03-03T15:33:26.661Z,9.48
2019-03-03T15:35:57.826Z,9.65
2019-03-03T15:38:29.173Z,10.15
2019-03-03T15:41:00.369Z,10.45
2019-03-03T15:43:31.996Z,10.82
2019-03-03T15:46:03.098Z,10.03
2019-03-03T15:48:34.785Z,10.13
2019-03-03T15:51:05.991Z,9.15
2019-03-03T15:53:37.326Z,9.75
2019-03-03T15:56:08.523Z,10.53
2019-03-03T15:58:39.821Z,10.15
2019-03-03T16:01:13.900Z,10.75
2019-03-03T16:03:45.776Z,10.93
2019-03-03T16:06:16.910Z,11.60
2019-03-03T16:08:49.652Z,10.75
2019-03-03T16:11:20.784Z,11.05
2019-03-03T16:13:52.007Z,10.95
2019-03-03T16:16:23.126Z,11.18
2019-03-03T16:18:54.459Z,11.50
2019-03-03T16:21:26.651Z,11.55
2019-03-03T16:23:58.064Z,11.95
2019-03-03T16:26:29.437Z,12.25
2019-03-03T16:29:00.608Z,11.93
2019-03-03T16:31:35.373Z,11.20
2019-03-03T16:34:06.643Z,11.25
2019-03-03T16:36:37.885Z,12.18
2019-03-03T16:39:08.981Z,12.37
2019-03-03T16:41:41.977Z,12.63
2019-03-03T16:44:13.809Z,13.20
2019-03-03T16:46:44.970Z,13.95
2019-03-03T16:49:16.266Z,14.75
2019-03-03T16:51:48.580Z,15.75
2019-03-03T16:54:23.877Z,15.45
2019-03-03T16:56:55.004Z,15.63
2019-03-03T16:59:26.305Z,16.37
2019-03-03T17:01:57.660Z,16.12
2019-03-03T17:04:28.906Z,25.55
2019-03-03T17:07:00.393Z,14.90
2019-03-03T17:09:31.884Z,13.55
2019-03-03T17:12:04.693Z,12.25
2019-03-03T17:14:36.054Z,12.95
2019-03-03T17:17:07.391Z,14.80
2019-03-03T17:19:38.812Z,18.02
2019-03-03T17:22:10.420Z,19.27
2019-03-03T17:24:42.004Z,20.95
2019-03-03T17:27:13.208Z,21.68
2019-03-03T17:29:46.607Z,21.10
2019-03-03T17:32:18.862Z,21.15
2019-03-03T17:34:50.087Z,20.05
2019-03-03T17:37:21.265Z,19.52
2019-03-03T17:39:52.557Z,18.20
2019-03-03T17:42:23.840Z,17.23
2019-03-03T17:44:55.067Z,16.40
2019-03-03T17:47:26.211Z,16.00
2019-03-03T17:49:59.131Z,14.78
2019-03-03T17:52:35.753Z,13.93
2019-03-03T17:55:07.546Z,14.58
2019-03-03T17:57:38.734Z,14.00
2019-03-03T18:00:19.954Z,13.38
2019-03-03T18:02:58.759Z,13.72
2019-03-03T18:05:30.095Z,15.75
2019-03-03T18:08:01.443Z,15.10
2019-03-03T18:10:33.558Z,15.45
2019-03-03T18:13:05.480Z,16.45
2019-03-03T18:15:36.748Z,15.63
2019-03-03T18:18:07.828Z,15.75
2019-03-03T18:20:40.680Z,16.42
2019-03-03T18:23:11.715Z,15.93
2019-03-03T18:25:43.070Z,16.05
2019-03-03T18:28:15.559Z,15.70
2019-03-03T18:30:46.688Z,16.12
2019-03-03T18:33:17.783Z,15.93
2019-03-03T18:35:48.963Z,13.85
2019-03-03T18:38:20.095Z,14.63
2019-03-03T18:40:51.276Z,13.60
2019-03-03T18:43:22.536Z,13.83
2019-03-03T18:45:53.927Z,14.25
2019-03-03T18:48:25.329Z,15.85
2019-03-03T18:50:56.521Z,15.10
2019-03-03T18:53:28.563Z,15.18
2019-03-03T18:55:59.868Z,14.28
2019-03-03T18:58:31.159Z,14.60
2019-03-03T19:01:02.424Z,13.70
2019-03-03T19:03:33.547Z,12.98
2019-03-03T19:06:04.739Z,12.75
2019-03-03T19:08:36.059Z,13.20
2019-03-03T19:11:07.275Z,12.00
2019-03-03T19:13:39.508Z,12.07
2019-03-03T19:16:10.753Z,12.65
2019-03-03T19:18:41.980Z,12.53
2019-03-03T19:21:13.086Z,12.95
2019-03-03T19:23:45.146Z,12.25
2019-03-03T19:26:16.473Z,11.38
2019-03-03T19:28:47.697Z,11.93
2019-03-03T19:31:20.865Z,11.55
2019-03-03T19:33:55.005Z,12.65
2019-03-03T19:36:26.155Z,13.78
2019-03-03T19:38:57.498Z,15.10
2019-03-03T19:41:28.751Z,14.03
2019-03-03T19:44:01.995Z,14.98
2019-03-03T19:46:33.347Z,15.10
2019-03-03T19:49:04.575Z,15.13
2019-03-03T19:51:35.731Z,15.72
2019-03-03T19:54:07.817Z,16.35
2019-03-03T19:56:39.319Z,15.80
2019-03-03T19:59:10.510Z,15.10
2019-03-03T20:01:41.698Z,15.03
2019-03-03T20:04:13.021Z,14.93
2019-03-03T20:06:44.449Z,15.53
2019-03-03T20:09:20.224Z,16.27
2019-03-03T20:11:51.696Z,16.50
2019-03-03T20:14:24.608Z,16.48
2019-03-03T20:16:56.252Z,21.20
2019-03-03T20:19:27.707Z,15.80
2019-03-03T20:21:59.343Z,15.55
2019-03-03T20:24:32.754Z,15.13
2019-03-03T20:27:04.268Z,16.65
2019-03-03T20:29:37.024Z,15.43
2019-03-03T20:32:12.238Z,15.98
2019-03-03T20:34:44.071Z,15.28
2019-03-03T20:37:15.435Z,14.70
2019-03-03T20:39:46.854Z,15.35
2019-03-03T20:42:19.898Z,15.35
2019-03-03T20:44:51.262Z,15.75
2019-03-03T20:47:22.643Z,15.15
2019-03-03T20:49:54.051Z,16.05
2019-03-03T20:52:25.620Z,15.35
2019-03-03T20:54:57.247Z,17.40
2019-03-03T20:57:29.121Z,17.23
2019-03-03T21:00:00.558Z,17.73
2019-03-03T21:02:32.978Z,18.12
2019-03-03T21:05:09.928Z,18.27
2019-03-03T21:07:50.636Z,17.25
2019-03-03T21:10:16.620Z,18.05
2019-03-03T21:12:49.193Z,18.00
2019-03-03T21:15:23.895Z,19.23
2019-03-03T21:17:56.670Z,18.92
2019-03-03T21:20:29.785Z,18.60
2019-03-03T21:23:01.941Z,18.07
2019-03-03T21:25:33.279Z,18.98
2019-03-03T21:28:05.927Z,20.90
2019-03-03T21:30:45.382Z,20.92
2019-03-03T21:33:23.203Z,20.30
2019-03-03T21:35:54.390Z,20.57
2019-03-03T21:38:26.252Z,21.45
2019-03-03T21:40:57.683Z,22.70
2019-03-03T21:43:32.017Z,21.07
2019-03-03T21:46:03.254Z,21.60
2019-03-03T21:48:36.340Z,19.95
2019-03-03T21:51:07.481Z,20.77
2019-03-03T21:53:42.862Z,20.62
2019-03-03T21:56:14.158Z,20.95
2019-03-03T21:58:45.496Z,21.42
2019-03-03T22:01:17.010Z,20.95
2019-03-03T22:03:52.401Z,21.00
2019-03-03T22:06:26.887Z,20.62
2019-03-03T22:09:00.617Z,21.33
2019-03-03T22:11:34.920Z,19.20
2019-03-03T22:14:06.465Z,20.37
2019-03-03T22:16:37.675Z,20.10
2019-03-03T22:19:08.960Z,19.90
2019-03-03T22:21:40.318Z,20.48
2019-03-03T22:24:11.664Z,21.42
2019-03-03T22:26:43.478Z,19.98
2019-03-03T22:29:19.397Z,20.35
2019-03-03T22:31:50.903Z,20.08
2019-03-03T22:34:22.210Z,20.50
2019-03-03T22:36:53.784Z,19.85
2019-03-03T22:39:25.441Z,22.17
2019-03-03T22:41:58.216Z,20.27
2019-03-03T22:44:29.575Z,20.90
2019-03-03T22:47:03.785Z,22.17
2019-03-03T22:49:35.212Z,20.95
2019-03-03T22:52:06.438Z,20.92
2019-03-03T22:54:42.146Z,20.15
2019-03-03T22:57:22.009Z,19.73
2019-03-03T22:59:56.255Z,20.85
2019-03-03T23:02:27.585Z,20.43
2019-03-03T23:05:21.465Z,18.92
2019-03-03T23:07:56.207Z,19.23
2019-03-03T23:10:41.276Z,18.20
2019-03-03T23:13:24.794Z,19.05
2019-03-03T23:16:32.689Z,20.32
2019-03-03T23:19:19.173Z,19.75
2019-03-03T23:22:12.715Z,21.23
2019-03-03T23:25:05.282Z,20.43
2019-03-03T23:27:36.482Z,18.82
2019-03-03T23:30:08.881Z,20.43
2019-03-03T23:32:40.112Z,20.02
2019-03-03T23:35:11.363Z,19.00
2019-03-03T23:37:42.632Z,20.60
2019-03-03T23:40:15.059Z,21.10
2019-03-03T23:42:46.318Z,20.45
2019-03-03T23:45:17.469Z,21.37
2019-03-03T23:47:48.587Z,19.07
2019-03-03T23:50:20.774Z,20.35
2019-03-03T23:52:51.823Z,19.35
2019-03-03T23:55:22.936Z,20.00
2019-03-03T23:57:54.182Z,17.75
